Time;durP1;ratioP1;P1;durP2;ratioP2;P2;SDS_P1;SDS_P2;PMS_P1;PMS_P2;Temp;Humidity;BMP_temperature;BMP_pressure;BME280_temperature;BME280_humidity;BME280_pressure;Samples;Min_cycle;Max_cycle;Signal;HPM_P1;HPM_P2
2022/02/01 00:01:43;;;;;;;25.35;9.70;;;3.00;99.90;;;;;;5030543;28;20029;-71
2022/02/01 00:04:18;;;;;;;29.67;10.18;;;3.00;99.90;;;;;;5029891;28;20104;-74
2022/02/01 00:09:34;;;;;;;27.95;10.52;;;3.00;99.90;;;;;;5014838;28;20103;-71
2022/02/01 00:33:48;;;;;;;27.67;10.65;;;3.00;99.90;;;;;;4999236;28;20037;-73
2022/02/01 00:39:00;;;;;;;30.92;10.77;;;2.90;99.90;;;;;;5026471;28;20107;-73
2022/02/01 00:41:30;;;;;;;24.83;10.90;;;2.90;99.90;;;;;;5034598;28;20030;-72
2022/02/01 00:43:57;;;;;;;27.08;11.43;;;2.90;99.90;;;;;;5026274;28;20029;-72
2022/02/01 00:46:23;;;;;;;29.08;9.60;;;3.00;99.90;;;;;;5021365;28;20013;-72
2022/02/01 00:48:49;;;;;;;23.42;10.48;;;2.90;99.90;;;;;;5029980;28;20022;-73
2022/02/01 00:51:15;;;;;;;22.27;8.75;;;3.00;99.90;;;;;;5030995;28;20041;-74
2022/02/01 00:53:42;;;;;;;25.02;9.63;;;3.10;99.90;;;;;;5035741;28;20108;-73
2022/02/01 00:56:09;;;;;;;22.40;8.63;;;3.00;99.90;;;;;;5021017;28;20112;-71
2022/02/01 00:58:35;;;;;;;19.48;8.02;;;3.10;99.90;;;;;;5028616;28;20057;-73
2022/02/01 01:01:01;;;;;;;16.30;7.20;;;3.10;99.90;;;;;;5028980;28;20084;-73
2022/02/01 01:03:27;;;;;;;19.38;7.70;;;3.10;99.90;;;;;;5027700;28;20025;-72
2022/02/01 01:05:53;;;;;;;21.35;7.10;;;3.20;99.90;;;;;;5028983;28;20784;-72
2022/02/01 01:08:19;;;;;;;20.48;6.43;;;3.20;99.90;;;;;;5031966;28;20447;-70
2022/02/01 01:10:45;;;;;;;17.10;5.32;;;3.20;99.90;;;;;;5031369;28;20064;-71
2022/02/01 01:15:47;;;;;;;19.55;5.70;;;3.30;99.90;;;;;;5032434;28;20099;-72
2022/02/01 01:45:46;;;;;;;9.52;3.03;;;3.40;99.90;;;;;;5025144;28;20025;-73
2022/02/01 01:53:40;;;;;;;17.55;3.17;;;3.40;99.90;;;;;;5028011;28;20026;-71
2022/02/01 01:56:06;;;;;;;13.70;2.83;;;3.40;99.90;;;;;;5035906;28;20040;-70
2022/02/01 01:58:32;;;;;;;13.57;3.17;;;3.40;99.90;;;;;;5048228;28;20025;-72
2022/02/01 02:01:14;;;;;;;11.95;2.85;;;3.30;99.90;;;;;;5022806;28;20033;-71
2022/02/01 02:03:45;;;;;;;9.88;1.95;;;3.40;99.90;;;;;;5030268;28;20030;-70
2022/02/01 02:06:13;;;;;;;12.25;2.00;;;3.30;99.90;;;;;;5027001;28;20482;-73
2022/02/01 02:08:44;;;;;;;17.02;2.65;;;3.30;99.90;;;;;;5034499;28;20415;-73
2022/02/01 02:11:15;;;;;;;17.23;2.40;;;3.30;99.90;;;;;;5027337;28;20033;-71
2022/02/01 02:16:37;;;;;;;15.70;1.92;;;3.20;99.90;;;;;;5032804;28;20029;-71
2022/02/01 02:19:04;;;;;;;16.65;2.85;;;3.20;99.90;;;;;;5031202;28;20104;-71
2022/02/01 02:21:30;;;;;;;4.80;1.73;;;3.20;99.90;;;;;;5032421;28;20134;-71
2022/02/01 02:23:56;;;;;;;13.50;2.00;;;3.20;99.90;;;;;;5028652;28;20100;-71
2022/02/01 02:26:21;;;;;;;16.83;2.28;;;3.10;99.90;;;;;;5031789;28;20036;-73
2022/02/01 02:28:48;;;;;;;9.63;1.92;;;3.10;99.90;;;;;;5031578;28;20104;-71
2022/02/01 02:31:14;;;;;;;14.38;2.67;;;3.10;99.90;;;;;;5020440;28;20387;-71
2022/02/01 02:33:40;;;;;;;12.02;2.42;;;3.00;99.90;;;;;;5033472;28;20129;-71
2022/02/01 02:38:45;;;;;;;20.77;2.55;;;3.00;99.90;;;;;;5028434;28;20479;-71
2022/02/01 02:41:51;;;;;;;13.35;2.60;;;3.00;99.90;;;;;;5030420;28;20071;-71
2022/02/01 02:46:53;;;;;;;14.95;2.00;;;3.10;99.90;;;;;;5030502;28;20032;-71
2022/02/01 02:49:21;;;;;;;12.27;2.03;;;3.10;99.90;;;;;;5026128;28;20117;-71
2022/02/01 02:51:47;;;;;;;17.33;2.28;;;3.10;99.90;;;;;;5023791;28;20030;-71
2022/02/01 02:54:15;;;;;;;10.77;2.17;;;3.10;99.90;;;;;;5022545;28;20029;-71
2022/02/01 02:56:47;;;;;;;12.32;2.33;;;3.20;99.90;;;;;;5025239;28;20025;-71
2022/02/01 02:59:14;;;;;;;14.70;2.83;;;3.20;99.90;;;;;;5022042;28;20029;-72
2022/02/01 03:01:41;;;;;;;16.27;3.13;;;3.20;99.90;;;;;;5026023;28;20424;-71
2022/02/01 03:04:07;;;;;;;9.60;2.33;;;3.20;99.90;;;;;;5023089;28;20108;-71
2022/02/01 03:06:32;;;;;;;14.38;2.25;;;3.20;99.90;;;;;;5024207;28;20580;-71
2022/02/01 03:08:58;;;;;;;15.55;2.67;;;3.20;99.90;;;;;;5022580;28;20472;-71
2022/02/01 03:11:24;;;;;;;15.90;3.60;;;3.30;99.90;;;;;;5018062;28;20029;-73
2022/02/01 03:13:59;;;;;;;16.90;2.88;;;3.30;99.90;;;;;;5022943;28;20356;-72
2022/02/01 03:16:37;;;;;;;20.13;2.67;;;3.30;99.90;;;;;;5018144;28;20029;-71
2022/02/01 03:21:47;;;;;;;16.95;2.60;;;3.30;99.90;;;;;;5015054;28;20045;-71
2022/02/01 03:24:12;;;;;;;13.40;2.33;;;3.30;99.90;;;;;;5030345;28;20439;-70
2022/02/01 03:26:38;;;;;;;17.05;2.67;;;3.30;99.90;;;;;;5032547;28;20065;-71
2022/02/01 03:29:04;;;;;;;20.00;1.98;;;3.30;99.90;;;;;;5030975;28;20630;-71
2022/02/01 03:31:30;;;;;;;15.27;3.22;;;3.30;99.90;;;;;;5022901;28;20036;-71
2022/02/01 03:33:55;;;;;;;15.32;2.30;;;3.30;99.90;;;;;;5029803;28;20026;-71
2022/02/01 03:36:21;;;;;;;19.67;2.78;;;3.20;99.90;;;;;;5032461;28;20010;-71
2022/02/01 03:38:47;;;;;;;18.90;3.42;;;3.20;99.90;;;;;;5029284;28;20049;-71
2022/02/01 03:41:13;;;;;;;17.73;2.45;;;3.20;99.90;;;;;;5030629;28;20026;-71
2022/02/01 03:43:39;;;;;;;13.75;1.98;;;3.10;99.90;;;;;;5058581;23;20040;-71
2022/02/01 03:46:05;;;;;;;18.42;3.08;;;3.20;99.90;;;;;;5055920;28;20397;-71
2022/02/01 03:48:30;;;;;;;16.17;1.98;;;3.10;99.90;;;;;;5052896;28;20020;-71
2022/02/01 03:50:56;;;;;;;12.40;2.42;;;3.10;99.90;;;;;;5057073;28;20379;-71
2022/02/01 03:53:22;;;;;;;14.52;1.80;;;3.20;99.90;;;;;;5054594;28;20052;-71
2022/02/01 03:55:47;;;;;;;16.80;2.30;;;3.20;99.90;;;;;;5054984;28;20037;-71
2022/02/01 03:58:13;;;;;;;13.13;2.45;;;3.20;99.90;;;;;;5041135;28;20021;-71
2022/02/01 04:00:39;;;;;;;12.57;1.90;;;3.20;99.90;;;;;;5053496;28;20029;-71
2022/02/01 04:03:04;;;;;;;16.45;2.00;;;3.20;99.90;;;;;;5037767;28;20493;-71
2022/02/01 04:05:34;;;;;;;11.95;1.77;;;3.20;99.90;;;;;;5036037;28;20028;-71
2022/02/01 04:08:00;;;;;;;11.98;2.25;;;3.20;99.90;;;;;;5059490;28;20028;-70
2022/02/01 04:10:26;;;;;;;17.17;3.20;;;3.20;99.90;;;;;;5054934;28;20021;-72
2022/02/01 04:12:52;;;;;;;11.73;2.25;;;3.20;99.90;;;;;;5056832;28;20155;-70
2022/02/01 04:15:21;;;;;;;11.65;2.03;;;3.30;99.90;;;;;;5056212;28;20099;-71
2022/02/01 04:17:47;;;;;;;17.05;2.72;;;3.30;99.90;;;;;;5056591;28;20025;-71
2022/02/01 04:20:13;;;;;;;14.68;1.80;;;3.30;99.90;;;;;;5054286;28;20041;-71
2022/02/01 04:22:39;;;;;;;12.98;2.00;;;3.30;99.90;;;;;;5038336;28;20028;-72
2022/02/01 04:25:05;;;;;;;17.90;2.65;;;3.20;99.90;;;;;;5058384;28;20079;-72
2022/02/01 04:27:31;;;;;;;16.40;2.15;;;3.30;99.90;;;;;;5058781;28;20025;-72
2022/02/01 04:30:09;;;;;;;20.95;2.22;;;3.30;99.90;;;;;;5056506;28;20440;-72
2022/02/01 04:32:37;;;;;;;18.02;2.70;;;3.30;99.90;;;;;;5039860;28;20026;-72
2022/02/01 04:35:04;;;;;;;23.48;3.08;;;3.30;99.90;;;;;;5037943;28;20056;-72
2022/02/01 04:37:30;;;;;;;12.38;2.58;;;3.30;99.90;;;;;;5059479;28;20060;-73
2022/02/01 04:39:58;;;;;;;10.10;2.20;;;3.30;99.90;;;;;;5055907;28;20375;-71
2022/02/01 04:42:27;;;;;;;18.23;2.53;;;3.30;99.90;;;;;;5041694;28;20029;-72
2022/02/01 04:44:52;;;;;;;15.05;2.67;;;3.30;99.90;;;;;;5057010;28;20068;-71
2022/02/01 04:47:18;;;;;;;15.18;2.75;;;3.30;99.90;;;;;;5058218;28;20008;-72
2022/02/01 04:49:44;;;;;;;19.00;2.45;;;3.30;99.90;;;;;;5054812;28;20054;-71
2022/02/01 04:52:10;;;;;;;18.02;2.75;;;3.40;99.90;;;;;;5054280;28;20024;-70
2022/02/01 04:54:36;;;;;;;17.52;2.22;;;3.40;99.90;;;;;;5062075;28;20493;-71
2022/02/01 04:57:02;;;;;;;13.75;2.25;;;3.40;99.90;;;;;;5057701;28;20025;-71
2022/02/01 04:59:28;;;;;;;12.70;2.58;;;3.40;99.90;;;;;;5058716;28;20036;-70
2022/02/01 05:01:53;;;;;;;12.90;2.53;;;3.40;99.90;;;;;;5046090;28;20021;-71
2022/02/01 05:04:19;;;;;;;15.75;2.28;;;3.50;99.90;;;;;;5072911;28;20021;-72
2022/02/01 05:06:49;;;;;;;12.85;2.78;;;3.50;99.90;;;;;;5053076;28;20529;-71
2022/02/01 05:09:15;;;;;;;19.77;2.30;;;3.50;99.90;;;;;;5064442;28;20062;-71
2022/02/01 05:11:40;;;;;;;12.40;2.50;;;3.50;99.90;;;;;;5057786;28;20012;-71
2022/02/01 05:14:13;;;;;;;17.90;2.38;;;3.50;99.90;;;;;;5054313;28;20025;-71
2022/02/01 05:21:58;;;;;;;11.85;2.55;;;3.50;99.90;;;;;;5054629;28;20020;-71
2022/02/01 05:24:25;;;;;;;14.43;2.13;;;3.50;99.90;;;;;;5058659;28;20043;-71
2022/02/01 05:26:54;;;;;;;18.70;3.33;;;3.50;99.90;;;;;;5053720;28;20048;-71
2022/02/01 05:29:19;;;;;;;12.43;1.70;;;3.50;99.90;;;;;;5061532;28;20013;-70
2022/02/01 05:31:51;;;;;;;15.82;2.33;;;3.50;99.90;;;;;;5052721;28;20105;-71
2022/02/01 05:34:20;;;;;;;15.20;2.08;;;3.50;99.90;;;;;;5054633;28;20028;-71
2022/02/01 05:36:46;;;;;;;18.55;2.38;;;3.50;99.90;;;;;;5056947;28;20109;-71
2022/02/01 05:39:21;;;;;;;17.88;2.35;;;3.50;99.90;;;;;;5062831;28;20052;-70
2022/02/01 05:41:50;;;;;;;14.05;2.15;;;3.50;99.90;;;;;;5040279;28;20033;-73
2022/02/01 05:44:16;;;;;;;14.98;2.30;;;3.40;99.90;;;;;;5056294;28;20025;-69
2022/02/01 05:46:41;;;;;;;17.00;2.22;;;3.40;99.90;;;;;;5059878;28;20031;-69
2022/02/01 05:49:07;;;;;;;21.00;2.80;;;3.40;99.90;;;;;;5036546;28;20017;-71
2022/02/01 05:51:34;;;;;;;22.02;2.75;;;3.40;99.90;;;;;;5042778;28;20025;-72
2022/02/01 05:53:59;;;;;;;13.77;2.17;;;3.40;99.90;;;;;;5056418;28;20049;-72
2022/02/01 05:56:26;;;;;;;16.02;2.80;;;3.40;99.90;;;;;;5023659;28;20029;-72
2022/02/01 05:58:51;;;;;;;19.55;3.30;;;3.40;99.90;;;;;;5035907;28;20032;-72
2022/02/01 06:01:18;;;;;;;15.07;2.70;;;3.40;99.90;;;;;;5059013;28;20025;-72
2022/02/01 06:03:45;;;;;;;22.25;4.55;;;3.30;99.90;;;;;;5058649;28;20031;-72
2022/02/01 06:06:10;;;;;;;19.45;2.88;;;3.40;99.90;;;;;;5037297;28;20064;-71
2022/02/01 06:08:36;;;;;;;17.48;3.30;;;3.40;99.90;;;;;;5048496;28;20045;-71
2022/02/01 06:11:02;;;;;;;21.98;2.35;;;3.40;99.90;;;;;;5055653;28;20518;-71
2022/02/01 06:13:28;;;;;;;14.70;2.53;;;3.40;99.90;;;;;;5055536;28;20394;-71
2022/02/01 06:15:54;;;;;;;15.98;4.10;;;3.40;99.90;;;;;;5037974;28;20029;-71
2022/02/01 06:18:20;;;;;;;19.55;2.42;;;3.40;99.90;;;;;;5057755;28;20043;-71
2022/02/01 06:20:45;;;;;;;19.08;2.80;;;3.50;99.90;;;;;;5057664;28;20541;-72
2022/02/01 06:23:16;;;;;;;14.57;2.22;;;3.50;99.90;;;;;;5054541;28;20093;-72
2022/02/01 06:25:49;;;;;;;17.00;2.75;;;3.50;99.90;;;;;;5056786;28;20016;-72
2022/02/01 06:28:23;;;;;;;16.60;2.38;;;3.50;99.90;;;;;;5059989;28;20035;-72
2022/02/01 06:30:52;;;;;;;15.00;2.35;;;3.50;99.90;;;;;;5057255;28;20348;-72
2022/02/01 06:33:22;;;;;;;15.73;2.03;;;3.50;99.90;;;;;;5063388;28;20040;-72
2022/02/01 06:35:47;;;;;;;17.02;3.63;;;3.50;99.90;;;;;;5062538;28;20372;-72
2022/02/01 06:38:14;;;;;;;15.80;2.35;;;3.50;99.90;;;;;;5057002;28;20029;-71
2022/02/01 06:40:46;;;;;;;15.07;2.35;;;3.50;99.90;;;;;;5059120;28;20612;-72
2022/02/01 06:43:14;;;;;;;14.98;2.25;;;3.50;99.90;;;;;;5053704;28;20030;-74
2022/02/01 06:45:40;;;;;;;11.73;2.13;;;3.50;99.90;;;;;;5035636;28;20059;-72
2022/02/01 06:48:06;;;;;;;19.00;3.70;;;3.50;99.90;;;;;;5052087;28;20159;-72
2022/02/01 06:50:33;;;;;;;16.20;2.35;;;3.50;99.90;;;;;;5039990;28;20036;-72
2022/02/01 06:53:02;;;;;;;13.43;2.92;;;3.50;99.90;;;;;;5039456;28;20498;-70
2022/02/01 06:55:59;;;;;;;13.02;2.10;;;3.50;99.90;;;;;;5058546;28;20610;-71
2022/02/01 06:58:17;;;;;;;21.95;2.88;;;3.50;99.90;;;;;;5051432;28;20028;-70
2022/02/01 07:00:43;;;;;;;14.95;2.60;;;3.50;99.90;;;;;;5054930;28;20039;-73
2022/02/01 07:03:09;;;;;;;16.63;2.55;;;3.50;99.90;;;;;;5057142;28;20410;-72
2022/02/01 07:05:35;;;;;;;13.32;1.98;;;3.50;99.90;;;;;;5059557;28;20025;-70
2022/02/01 07:08:01;;;;;;;17.63;2.10;;;3.50;99.90;;;;;;5039983;28;20408;-70
2022/02/01 07:10:27;;;;;;;19.42;2.67;;;3.50;99.90;;;;;;5056086;28;20033;-71
2022/02/01 07:12:52;;;;;;;15.13;2.40;;;3.50;99.90;;;;;;5053235;28;20036;-71
2022/02/01 07:15:18;;;;;;;12.27;2.13;;;3.50;99.90;;;;;;5033926;28;20108;-70
2022/02/01 07:17:45;;;;;;;19.95;2.70;;;3.50;99.90;;;;;;5049877;28;20128;-72
2022/02/01 07:20:11;;;;;;;16.50;2.10;;;3.50;99.90;;;;;;5052705;28;20056;-70
2022/02/01 07:22:37;;;;;;;14.60;2.40;;;3.50;99.90;;;;;;5042198;28;20557;-70
2022/02/01 07:25:13;;;;;;;10.52;2.08;;;3.50;99.90;;;;;;5055152;28;20067;-70
2022/02/01 07:27:42;;;;;;;17.35;2.20;;;3.50;99.90;;;;;;5056569;28;20032;-71
2022/02/01 07:30:11;;;;;;;20.23;2.13;;;3.60;99.90;;;;;;5037419;28;20047;-70
2022/02/01 07:32:40;;;;;;;10.10;2.17;;;3.60;99.90;;;;;;5052480;28;20102;-71
2022/02/01 07:35:07;;;;;;;9.52;2.00;;;3.60;99.90;;;;;;5052571;28;20366;-71
2022/02/01 07:37:33;;;;;;;13.18;2.30;;;3.70;99.90;;;;;;5059673;28;20428;-70
2022/02/01 07:40:01;;;;;;;11.35;1.98;;;3.70;99.90;;;;;;5053641;28;20071;-70
2022/02/01 07:42:27;;;;;;;16.40;2.67;;;3.70;99.90;;;;;;5050667;28;20113;-72
2022/02/01 07:44:58;;;;;;;13.05;1.92;;;3.70;99.90;;;;;;5034791;28;20068;-70
2022/02/01 07:47:24;;;;;;;14.93;2.73;;;3.70;99.90;;;;;;5052057;28;20059;-71
2022/02/01 07:49:49;;;;;;;13.52;2.45;;;3.70;99.90;;;;;;5048625;28;20029;-71
2022/02/01 07:52:16;;;;;;;20.10;1.95;;;3.70;99.90;;;;;;5055510;28;20389;-71
2022/02/01 07:54:41;;;;;;;13.52;2.22;;;3.70;99.90;;;;;;5054213;28;20111;-72
2022/02/01 07:57:07;;;;;;;15.65;2.35;;;3.70;99.90;;;;;;5035540;28;20104;-71
2022/02/01 07:59:34;;;;;;;16.90;2.15;;;3.70;99.90;;;;;;5053579;28;20025;-71
2022/02/01 08:02:00;;;;;;;11.60;1.90;;;3.70;99.90;;;;;;5054409;28;20025;-73
2022/02/01 08:04:31;;;;;;;14.40;3.38;;;3.70;99.90;;;;;;5050976;28;20252;-72
2022/02/01 08:06:57;;;;;;;;;;;3.80;99.90;;;;;;5061564;28;20557;-70
2022/02/01 08:09:27;;;;;;;10.13;2.65;;;3.90;99.90;;;;;;5051406;28;19909;-70
2022/02/01 08:11:54;;;;;;;9.70;1.90;;;3.80;99.90;;;;;;5053096;28;20457;-72
2022/02/01 08:17:06;;;;;;;16.35;2.08;;;3.90;99.90;;;;;;5045899;28;20028;-72
2022/02/01 08:19:53;;;;;;;14.05;2.85;;;4.00;99.90;;;;;;5050633;28;20025;-71
2022/02/01 08:22:36;;;;;;;14.85;2.20;;;4.00;99.90;;;;;;5062013;28;20041;-71
2022/02/01 08:25:03;;;;;;;8.93;1.88;;;3.90;99.90;;;;;;5058325;28;20025;-71
2022/02/01 08:27:30;;;;;;;12.27;1.83;;;3.90;99.90;;;;;;5057131;28;20033;-77
2022/02/01 08:29:56;;;;;;;12.55;1.70;;;4.00;99.90;;;;;;5039170;28;20113;-73
2022/02/01 08:32:23;;;;;;;14.13;2.00;;;4.00;99.90;;;;;;5056401;28;20514;-73
2022/02/01 08:34:49;;;;;;;14.40;1.90;;;4.00;99.90;;;;;;5054807;28;20029;-72
2022/02/01 08:37:15;;;;;;;19.38;2.17;;;4.00;99.90;;;;;;5040409;28;20024;-72
2022/02/01 08:39:40;;;;;;;11.65;2.10;;;4.00;99.90;;;;;;5052229;28;20025;-73
2022/02/01 08:42:06;;;;;;;14.70;2.35;;;4.00;99.90;;;;;;5043676;28;20017;-74
2022/02/01 08:44:34;;;;;;;15.65;2.05;;;4.00;99.90;;;;;;5068294;28;20036;-73
2022/02/01 08:47:20;;;;;;;11.15;1.65;;;4.00;99.90;;;;;;5035615;28;20494;-73
2022/02/01 08:49:46;;;;;;;14.15;2.25;;;4.00;99.90;;;;;;4991485;28;20042;-73
2022/02/01 08:52:26;;;;;;;12.30;2.15;;;4.00;99.90;;;;;;4977314;28;20046;-73
2022/02/01 08:54:53;;;;;;;37.88;5.55;;;4.10;99.90;;;;;;4993558;28;20113;-72
2022/02/01 08:57:22;;;;;;;11.02;2.03;;;4.10;99.90;;;;;;4995164;28;20057;-73
2022/02/01 08:59:52;;;;;;;13.85;2.05;;;4.10;99.90;;;;;;4990485;28;20037;-71
2022/02/01 09:02:23;;;;;;;10.70;2.20;;;4.10;99.90;;;;;;4978425;28;20027;-73
2022/02/01 09:04:49;;;;;;;;;;;4.10;99.90;;;;;;4993136;28;20034;-73
2022/02/01 09:07:15;;;;;;;9.90;2.45;;;4.10;99.90;;;;;;4994892;28;19910;-73
2022/02/01 09:09:41;;;;;;;17.20;2.63;;;4.10;99.90;;;;;;4995690;28;20108;-73
2022/02/01 09:12:07;;;;;;;7.45;2.20;;;4.10;99.90;;;;;;4996169;28;20129;-73
2022/02/01 09:14:33;;;;;;;16.67;2.47;;;4.20;99.90;;;;;;4979054;28;20042;-73
2022/02/01 09:17:01;;;;;;;15.60;2.88;;;4.20;99.90;;;;;;4993857;28;20037;-73
2022/02/01 09:19:27;;;;;;;14.20;2.85;;;4.30;99.90;;;;;;4991984;28;20085;-73
2022/02/01 09:21:54;;;;;;;15.45;3.45;;;4.30;99.90;;;;;;4992034;28;20050;-74
2022/02/01 09:24:20;;;;;;;9.07;2.35;;;4.30;99.90;;;;;;4992674;28;20040;-74
2022/02/01 09:26:47;;;;;;;12.90;2.67;;;4.30;99.90;;;;;;5030335;28;20029;-73
2022/02/01 09:29:13;;;;;;;11.38;2.45;;;4.40;99.90;;;;;;5058387;28;20446;-73
2022/02/01 09:31:38;;;;;;;17.42;2.90;;;4.40;99.90;;;;;;5059173;28;20305;-72
2022/02/01 09:34:06;;;;;;;14.68;2.33;;;4.40;99.90;;;;;;5059162;28;20363;-73
2022/02/01 09:36:33;;;;;;;8.55;2.28;;;4.40;99.90;;;;;;5071080;28;20060;-73
2022/02/01 09:38:59;;;;;;;14.95;2.67;;;4.40;99.90;;;;;;5058818;28;20070;-73
2022/02/01 09:41:26;;;;;;;11.98;2.90;;;4.40;99.90;;;;;;5059491;28;20029;-74
2022/02/01 09:43:52;;;;;;;11.43;3.50;;;4.40;99.90;;;;;;5059076;28;20470;-73
2022/02/01 09:46:18;;;;;;;13.95;3.90;;;4.40;99.90;;;;;;5066932;28;20071;-74
2022/02/01 09:48:45;;;;;;;11.75;3.90;;;4.40;99.90;;;;;;5046056;28;20066;-73
2022/02/01 09:51:10;;;;;;;12.45;4.53;;;4.40;99.90;;;;;;5057083;28;20138;-73
2022/02/01 09:53:38;;;;;;;11.05;4.60;;;4.40;99.90;;;;;;5040292;28;20501;-73
2022/02/01 09:56:04;;;;;;;15.30;4.85;;;4.30;99.90;;;;;;5059401;28;20110;-72
2022/02/01 09:58:37;;;;;;;11.98;4.97;;;4.30;99.90;;;;;;5056920;28;20029;-72
2022/02/01 10:01:21;;;;;;;18.90;5.38;;;4.30;99.90;;;;;;5039543;28;20025;-72
2022/02/01 10:04:02;;;;;;;11.25;5.32;;;4.30;99.90;;;;;;5037971;28;20051;-72
2022/02/01 10:06:30;;;;;;;18.17;5.75;;;4.30;99.90;;;;;;5058412;28;20055;-72
2022/02/01 10:09:15;;;;;;;15.40;5.72;;;4.30;99.90;;;;;;5057850;28;20052;-73
2022/02/01 10:11:46;;;;;;;12.55;5.75;;;4.20;99.90;;;;;;5056771;28;20025;-72
2022/02/01 10:14:27;;;;;;;13.63;5.68;;;4.20;99.90;;;;;;5057505;28;20719;-72
2022/02/01 10:16:57;;;;;;;13.40;5.47;;;4.10;99.90;;;;;;5058077;28;20032;-73
2022/02/01 10:19:23;;;;;;;11.80;5.20;;;4.10;99.90;;;;;;5059067;28;20025;-73
2022/02/01 10:21:56;;;;;;;18.67;5.10;;;4.10;99.90;;;;;;5058147;28;20099;-73
2022/02/01 10:24:30;;;;;;;16.80;5.28;;;4.00;99.90;;;;;;5059426;28;20033;-72
2022/02/01 10:27:17;;;;;;;15.93;5.50;;;4.00;99.90;;;;;;5055467;28;20033;-72
2022/02/01 10:32:50;;;;;;;14.77;4.88;;;4.00;99.90;;;;;;5042493;28;20028;-73
2022/02/01 10:35:32;;;;;;;8.60;5.10;;;4.00;99.90;;;;;;5040576;28;20154;-73
2022/02/01 10:38:00;;;;;;;16.73;5.22;;;3.90;99.90;;;;;;5058421;28;20032;-73
2022/02/01 10:40:55;;;;;;;13.25;5.10;;;4.00;99.90;;;;;;5057504;28;20059;-73
2022/02/01 10:43:23;;;;;;;11.02;5.50;;;4.00;99.90;;;;;;5015645;28;20045;-73
2022/02/01 10:45:51;;;;;;;14.15;4.68;;;4.00;99.90;;;;;;5056823;28;20534;-72
2022/02/01 10:48:28;;;;;;;11.20;5.75;;;4.10;99.90;;;;;;5056977;28;20025;-73
2022/02/01 10:51:01;;;;;;;14.20;4.30;;;4.00;99.90;;;;;;5057686;28;20032;-73
2022/02/01 10:53:27;;;;;;;11.30;4.43;;;4.00;99.90;;;;;;5021488;28;20029;-73
2022/02/01 10:55:53;;;;;;;11.73;4.72;;;4.00;99.90;;;;;;5038182;28;20112;-73
2022/02/01 10:58:19;;;;;;;13.68;5.30;;;4.00;99.90;;;;;;5058701;28;20483;-74
2022/02/01 11:00:47;;;;;;;11.20;4.70;;;4.00;99.90;;;;;;5055599;28;20040;-72
2022/02/01 11:03:15;;;;;;;10.98;4.30;;;4.00;99.90;;;;;;5055294;28;20021;-73
2022/02/01 11:05:45;;;;;;;14.18;5.05;;;4.00;99.90;;;;;;5061090;28;20024;-72
2022/02/01 11:08:14;;;;;;;13.23;4.87;;;4.00;99.90;;;;;;5062158;28;20104;-72
2022/02/01 11:10:51;;;;;;;10.85;4.78;;;4.10;99.90;;;;;;5031806;28;20025;-70
2022/02/01 11:13:17;;;;;;;9.68;4.15;;;4.00;99.90;;;;;;5052059;28;20028;-71
2022/02/01 11:15:56;;;;;;;12.20;4.88;;;4.00;99.90;;;;;;5048009;28;20487;-71
2022/02/01 11:18:26;;;;;;;11.25;4.85;;;4.00;99.90;;;;;;5051243;28;20032;-72
2022/02/01 11:21:13;;;;;;;10.60;4.30;;;4.00;99.90;;;;;;5049942;28;20028;-71
2022/02/01 11:23:57;;;;;;;8.88;4.75;;;4.00;99.90;;;;;;5052295;28;20057;-71
2022/02/01 11:26:25;;;;;;;14.27;5.05;;;4.00;99.90;;;;;;5051133;28;20056;-71
2022/02/01 11:31:54;;;;;;;12.88;4.85;;;4.10;99.90;;;;;;5056323;28;20378;-71
2022/02/01 11:34:33;;;;;;;8.88;4.78;;;4.20;99.90;;;;;;5051998;28;20024;-73
2022/02/01 11:37:03;;;;;;;9.73;4.63;;;4.20;99.90;;;;;;5035330;28;20029;-71
2022/02/01 11:39:31;;;;;;;7.72;4.78;;;4.20;99.90;;;;;;5056935;28;20501;-72
2022/02/01 11:41:57;;;;;;;8.25;4.70;;;4.30;99.90;;;;;;5051881;28;20055;-72
2022/02/01 11:44:28;;;;;;;9.77;4.85;;;4.30;99.90;;;;;;5033614;28;20505;-72
2022/02/01 11:47:00;;;;;;;8.30;5.43;;;4.30;99.90;;;;;;5036145;28;20025;-72
2022/02/01 11:49:26;;;;;;;12.05;5.72;;;4.30;99.90;;;;;;5017986;28;20112;-72
2022/02/01 11:52:04;;;;;;;10.52;5.45;;;4.40;99.90;;;;;;5058844;28;20104;-72
2022/02/01 11:54:32;;;;;;;8.27;5.45;;;4.40;99.90;;;;;;5059448;28;20046;-72
2022/02/01 11:57:13;;;;;;;8.20;5.28;;;4.40;99.90;;;;;;5060264;28;20051;-72
2022/02/01 11:59:56;;;;;;;14.85;6.25;;;4.50;99.90;;;;;;5059342;28;20036;-73
2022/02/01 12:02:30;;;;;;;10.75;5.85;;;4.50;99.90;;;;;;5056653;28;20040;-73
2022/02/01 12:05:08;;;;;;;11.90;6.90;;;4.50;99.90;;;;;;5050537;28;20029;-73
2022/02/01 12:07:49;;;;;;;14.35;7.00;;;4.60;99.90;;;;;;5053369;28;20048;-72
2022/02/01 12:10:17;;;;;;;11.48;6.72;;;4.60;99.90;;;;;;5046737;28;20047;-71
2022/02/01 12:12:44;;;;;;;11.85;7.43;;;4.70;99.90;;;;;;5049776;28;20542;-69
2022/02/01 12:15:10;;;;;;;12.75;7.90;;;4.70;99.90;;;;;;5046765;28;20033;-74
2022/02/01 12:17:43;;;;;;;14.52;7.78;;;4.70;99.90;;;;;;5041046;28;20032;-71
2022/02/01 12:20:14;;;;;;;19.05;9.20;;;4.80;99.90;;;;;;5035023;28;20033;-71
2022/02/01 12:23:14;;;;;;;13.32;8.85;;;4.70;99.90;;;;;;5054231;28;20064;-71
2022/02/01 12:25:40;;;;;;;14.57;7.85;;;4.90;99.90;;;;;;5057424;28;20051;-72
2022/02/01 12:28:25;;;;;;;10.27;6.97;;;4.90;99.90;;;;;;5032634;28;20382;-71
2022/02/01 12:30:52;;;;;;;12.93;7.10;;;4.90;99.90;;;;;;5055106;28;20487;-70
2022/02/01 12:33:23;;;;;;;11.02;6.70;;;5.00;99.90;;;;;;5054137;28;20025;-72
2022/02/01 12:35:54;;;;;;;10.98;6.78;;;5.00;99.90;;;;;;5056491;28;20028;-71
2022/02/01 12:38:24;;;;;;;10.93;6.35;;;5.10;99.90;;;;;;5057403;28;20959;-72
2022/02/01 12:40:58;;;;;;;9.50;5.72;;;5.10;99.90;;;;;;5041160;28;20039;-72
2022/02/01 12:43:27;;;;;;;10.50;5.38;;;5.10;99.90;;;;;;5056046;28;20124;-71
2022/02/01 12:48:27;;;;;;;7.22;4.53;;;5.20;99.90;;;;;;5050994;28;20021;-72
2022/02/01 12:51:03;;;;;;;8.05;4.03;;;5.20;99.90;;;;;;5051929;28;20045;-71
2022/02/01 12:53:44;;;;;;;9.18;4.47;;;5.30;99.90;;;;;;5059650;28;20024;-72
2022/02/01 12:56:11;;;;;;;;;;;5.30;99.90;;;;;;5060812;28;20048;-71
2022/02/01 12:58:37;;;;;;;9.77;3.70;;;5.30;99.90;;;;;;5051617;28;19909;-71
2022/02/01 13:01:02;;;;;;;7.18;3.40;;;5.40;99.90;;;;;;5050853;28;20027;-71
2022/02/01 13:03:42;;;;;;;5.82;3.70;;;5.40;99.90;;;;;;5057837;28;20032;-71
2022/02/01 13:06:11;;;;;;;6.50;3.90;;;5.40;99.90;;;;;;5052164;28;20034;-70
2022/02/01 13:12:55;;;;;;;8.45;3.88;;;5.50;99.90;;;;;;5054127;28;20021;-73
2022/02/01 13:17:16;;;;;;;8.18;3.50;;;5.60;99.90;;;;;;5051289;28;20358;-72
2022/02/01 13:20:11;;;;;;;8.00;3.67;;;5.60;99.90;;;;;;5051484;28;20025;-72
2022/02/01 13:22:56;;;;;;;626.65;279.02;;;5.70;99.90;;;;;;5065045;28;20033;-72
2022/02/01 13:25:31;;;;;;;49.53;31.55;;;5.80;99.90;;;;;;5057728;28;20065;-72
2022/02/01 13:28:03;;;;;;;35.25;20.02;;;5.80;99.90;;;;;;5040441;28;20024;-71
2022/02/01 13:30:29;;;;;;;18.65;5.40;;;5.90;99.90;;;;;;5058151;28;20594;-71
2022/02/01 13:33:04;;;;;;;15.95;4.85;;;6.00;99.90;;;;;;5062026;28;20037;-72
2022/02/01 13:35:30;;;;;;;14.27;5.70;;;6.00;99.90;;;;;;5036549;28;20263;-72
2022/02/01 13:37:56;;;;;;;20.52;5.43;;;6.10;99.90;;;;;;5058615;28;20071;-72
2022/02/01 13:40:27;;;;;;;18.52;5.82;;;6.20;99.90;;;;;;5057162;28;20453;-72
2022/02/01 13:42:54;;;;;;;18.88;6.22;;;6.20;99.90;;;;;;5059901;28;20056;-73
2022/02/01 13:45:32;;;;;;;26.17;5.70;;;6.20;99.90;;;;;;5058698;28;20021;-73
2022/02/01 13:47:57;;;;;;;15.77;4.75;;;6.30;99.90;;;;;;5062012;28;20031;-72
2022/02/01 13:50:23;;;;;;;16.25;5.68;;;6.30;99.90;;;;;;5040118;28;20025;-74
2022/02/01 13:53:00;;;;;;;22.63;4.85;;;6.40;99.90;;;;;;5059266;28;20372;-73
2022/02/01 13:55:28;;;;;;;18.52;4.35;;;6.40;99.90;;;;;;5058086;28;20508;-71
2022/02/01 13:58:18;;;;;;;19.10;4.43;;;6.40;99.90;;;;;;5060754;28;20032;-71
2022/02/01 14:00:48;;;;;;;20.27;4.00;;;6.50;99.90;;;;;;5054787;28;20031;-72
2022/02/01 14:08:50;;;;;;;25.25;4.63;;;6.50;99.90;;;;;;5035173;28;20033;-73
2022/02/01 14:34:51;;;;;;;26.52;4.60;;;6.80;99.90;;;;;;5055683;28;20029;-75
2022/02/01 14:37:26;;;;;;;33.25;5.13;;;6.80;99.90;;;;;;5055069;28;20036;-74
2022/02/01 14:43:16;;;;;;;35.08;5.05;;;6.80;99.90;;;;;;5056313;28;20025;-74
2022/02/01 14:45:39;;;;;;;30.90;4.68;;;6.90;99.90;;;;;;5053219;28;20024;-75
2022/02/01 14:48:05;;;;;;;26.35;4.40;;;6.90;99.90;;;;;;5061928;28;20131;-74
2022/02/01 14:50:31;;;;;;;30.70;4.20;;;6.90;99.90;;;;;;5057186;28;20032;-73
2022/02/01 14:52:57;;;;;;;33.72;4.82;;;6.90;99.90;;;;;;5037367;28;20036;-73
2022/02/01 14:55:23;;;;;;;34.05;4.50;;;6.90;99.90;;;;;;5055838;28;20029;-74
2022/02/01 15:12:03;;;;;;;41.35;5.50;;;6.90;99.90;;;;;;5056514;28;20025;-73
2022/02/01 15:14:20;;;;;;;36.03;4.57;;;7.00;99.90;;;;;;5039041;28;20441;-73
2022/02/01 15:16:46;;;;;;;30.55;4.57;;;6.90;99.90;;;;;;5058975;28;20024;-73
2022/02/01 15:19:12;;;;;;;37.88;5.82;;;6.90;99.90;;;;;;5033377;28;20423;-75
2022/02/01 15:21:37;;;;;;;28.90;4.35;;;7.00;99.90;;;;;;5057485;28;20016;-73